sensor_id;sensor_type;location;lat;lon;timestamp;P1;durP1;ratioP1;P2;durP2;ratioP2
1454;SDS011;721;48.168;12.818;2022-07-06T00:00:16;2.53;;;2.40;;
1454;SDS011;721;48.168;12.818;2022-07-06T00:02:43;2.43;;;2.10;;
1454;SDS011;721;48.168;12.818;2022-07-06T00:05:09;2.07;;;1.93;;
1454;SDS011;721;48.168;12.818;2022-07-06T00:07:36;3.50;;;2.00;;
1454;SDS011;721;48.168;12.818;2022-07-06T00:10:03;2.23;;;2.13;;
1454;SDS011;721;48.168;12.818;2022-07-06T00:12:31;2.30;;;2.23;;
1454;SDS011;721;48.168;12.818;2022-07-06T00:15:01;2.23;;;2.07;;
1454;SDS011;721;48.168;12.818;2022-07-06T00:17:28;2.37;;;2.23;;
1454;SDS011;721;48.168;12.818;2022-07-06T00:19:55;2.77;;;2.33;;
1454;SDS011;721;48.168;12.818;2022-07-06T00:22:22;1.90;;;1.90;;
1454;SDS011;721;48.168;12.818;2022-07-06T00:24:49;2.50;;;2.30;;
1454;SDS011;721;48.168;12.818;2022-07-06T00:27:16;2.70;;;2.50;;
1454;SDS011;721;48.168;12.818;2022-07-06T00:29:42;1.97;;;1.87;;
1454;SDS011;721;48.168;12.818;2022-07-06T00:32:11;3.43;;;2.27;;
1454;SDS011;721;48.168;12.818;2022-07-06T00:34:38;2.77;;;2.57;;
1454;SDS011;721;48.168;12.818;2022-07-06T00:37:10;2.40;;;2.30;;
1454;SDS011;721;48.168;12.818;2022-07-06T00:39:36;2.70;;;2.50;;
1454;SDS011;721;48.168;12.818;2022-07-06T00:42:07;2.10;;;2.00;;
1454;SDS011;721;48.168;12.818;2022-07-06T00:44:34;2.37;;;2.27;;
1454;SDS011;721;48.168;12.818;2022-07-06T00:47:01;2.83;;;2.67;;
1454;SDS011;721;48.168;12.818;2022-07-06T00:49:30;2.37;;;2.27;;
1454;SDS011;721;48.168;12.818;2022-07-06T00:52:14;2.10;;;2.00;;
1454;SDS011;721;48.168;12.818;2022-07-06T00:54:41;2.10;;;2.00;;
1454;SDS011;721;48.168;12.818;2022-07-06T00:57:09;2.30;;;2.20;;
1454;SDS011;721;48.168;12.818;2022-07-06T00:59:36;2.53;;;2.33;;
1454;SDS011;721;48.168;12.818;2022-07-06T01:02:03;2.63;;;2.53;;
1454;SDS011;721;48.168;12.818;2022-07-06T01:04:31;2.97;;;2.40;;
1454;SDS011;721;48.168;12.818;2022-07-06T01:06:58;2.40;;;2.30;;
1454;SDS011;721;48.168;12.818;2022-07-06T01:09:25;3.07;;;2.87;;
1454;SDS011;721;48.168;12.818;2022-07-06T01:11:52;2.90;;;2.50;;
1454;SDS011;721;48.168;12.818;2022-07-06T01:14:19;2.70;;;2.50;;
1454;SDS011;721;48.168;12.818;2022-07-06T01:16:46;4.00;;;2.40;;
1454;SDS011;721;48.168;12.818;2022-07-06T01:19:14;2.57;;;2.47;;
1454;SDS011;721;48.168;12.818;2022-07-06T01:21:42;2.93;;;2.73;;
1454;SDS011;721;48.168;12.818;2022-07-06T01:24:08;3.27;;;2.93;;
1454;SDS011;721;48.168;12.818;2022-07-06T01:26:35;2.53;;;2.33;;
1454;SDS011;721;48.168;12.818;2022-07-06T01:29:02;2.77;;;2.57;;
1454;SDS011;721;48.168;12.818;2022-07-06T01:31:29;2.90;;;2.70;;
1454;SDS011;721;48.168;12.818;2022-07-06T01:33:56;3.07;;;2.87;;
1454;SDS011;721;48.168;12.818;2022-07-06T01:36:23;3.07;;;2.87;;
1454;SDS011;721;48.168;12.818;2022-07-06T01:38:52;3.73;;;3.43;;
1454;SDS011;721;48.168;12.818;2022-07-06T01:41:23;3.40;;;3.10;;
1454;SDS011;721;48.168;12.818;2022-07-06T01:43:50;2.97;;;2.77;;
1454;SDS011;721;48.168;12.818;2022-07-06T01:46:17;3.00;;;2.80;;
1454;SDS011;721;48.168;12.818;2022-07-06T01:48:45;3.30;;;3.10;;
1454;SDS011;721;48.168;12.818;2022-07-06T01:51:12;3.00;;;2.90;;
1454;SDS011;721;48.168;12.818;2022-07-06T01:53:39;3.40;;;2.83;;
1454;SDS011;721;48.168;12.818;2022-07-06T01:56:08;3.00;;;2.83;;
1454;SDS011;721;48.168;12.818;2022-07-06T01:58:35;3.10;;;2.90;;
1454;SDS011;721;48.168;12.818;2022-07-06T02:01:06;2.90;;;2.70;;
1454;SDS011;721;48.168;12.818;2022-07-06T02:03:33;3.27;;;3.07;;
1454;SDS011;721;48.168;12.818;2022-07-06T02:06:00;2.97;;;2.63;;
1454;SDS011;721;48.168;12.818;2022-07-06T02:08:27;3.13;;;3.03;;
1454;SDS011;721;48.168;12.818;2022-07-06T02:10:54;3.73;;;3.40;;
1454;SDS011;721;48.168;12.818;2022-07-06T02:13:22;4.87;;;3.20;;
1454;SDS011;721;48.168;12.818;2022-07-06T02:15:49;3.70;;;3.40;;
1454;SDS011;721;48.168;12.818;2022-07-06T02:18:15;3.10;;;2.80;;
1454;SDS011;721;48.168;12.818;2022-07-06T02:20:42;3.50;;;3.20;;
1454;SDS011;721;48.168;12.818;2022-07-06T02:23:09;2.97;;;2.60;;
1454;SDS011;721;48.168;12.818;2022-07-06T02:25:36;3.13;;;2.93;;
1454;SDS011;721;48.168;12.818;2022-07-06T02:28:03;3.13;;;2.93;;
1454;SDS011;721;48.168;12.818;2022-07-06T02:30:31;3.13;;;2.93;;
1454;SDS011;721;48.168;12.818;2022-07-06T02:32:58;3.73;;;3.43;;
1454;SDS011;721;48.168;12.818;2022-07-06T02:35:25;3.60;;;3.40;;
1454;SDS011;721;48.168;12.818;2022-07-06T02:37:52;4.07;;;3.70;;
1454;SDS011;721;48.168;12.818;2022-07-06T02:40:19;3.43;;;3.23;;
1454;SDS011;721;48.168;12.818;2022-07-06T02:42:46;4.13;;;3.90;;
1454;SDS011;721;48.168;12.818;2022-07-06T02:45:13;3.83;;;3.53;;
1454;SDS011;721;48.168;12.818;2022-07-06T02:47:41;3.87;;;3.57;;
1454;SDS011;721;48.168;12.818;2022-07-06T02:50:08;3.50;;;3.30;;
1454;SDS011;721;48.168;12.818;2022-07-06T02:52:35;4.60;;;4.20;;
1454;SDS011;721;48.168;12.818;2022-07-06T02:55:01;4.23;;;3.93;;
1454;SDS011;721;48.168;12.818;2022-07-06T02:57:28;3.27;;;3.07;;
1454;SDS011;721;48.168;12.818;2022-07-06T02:59:55;4.20;;;3.93;;
1454;SDS011;721;48.168;12.818;2022-07-06T03:02:22;4.03;;;3.63;;
1454;SDS011;721;48.168;12.818;2022-07-06T03:04:51;4.00;;;3.77;;
1454;SDS011;721;48.168;12.818;2022-07-06T03:07:17;3.90;;;3.70;;
1454;SDS011;721;48.168;12.818;2022-07-06T03:09:44;3.90;;;3.60;;
1454;SDS011;721;48.168;12.818;2022-07-06T03:12:11;3.97;;;3.70;;
1454;SDS011;721;48.168;12.818;2022-07-06T03:14:38;3.60;;;3.40;;
1454;SDS011;721;48.168;12.818;2022-07-06T03:17:05;3.40;;;3.00;;
1454;SDS011;721;48.168;12.818;2022-07-06T03:19:32;3.87;;;3.57;;
1454;SDS011;721;48.168;12.818;2022-07-06T03:22:00;3.80;;;3.60;;
1454;SDS011;721;48.168;12.818;2022-07-06T03:24:27;3.83;;;3.63;;
1454;SDS011;721;48.168;12.818;2022-07-06T03:26:54;3.83;;;3.63;;
1454;SDS011;721;48.168;12.818;2022-07-06T03:29:20;3.50;;;3.30;;
1454;SDS011;721;48.168;12.818;2022-07-06T03:31:47;4.30;;;4.00;;
1454;SDS011;721;48.168;12.818;2022-07-06T03:34:14;4.20;;;3.90;;
1454;SDS011;721;48.168;12.818;2022-07-06T03:36:41;3.90;;;3.60;;
1454;SDS011;721;48.168;12.818;2022-07-06T03:39:09;3.80;;;3.60;;
1454;SDS011;721;48.168;12.818;2022-07-06T03:41:36;3.47;;;3.27;;
1454;SDS011;721;48.168;12.818;2022-07-06T03:44:03;4.40;;;4.10;;
1454;SDS011;721;48.168;12.818;2022-07-06T03:46:30;4.53;;;4.20;;
1454;SDS011;721;48.168;12.818;2022-07-06T03:48:57;4.63;;;3.53;;
1454;SDS011;721;48.168;12.818;2022-07-06T03:51:24;4.40;;;4.10;;
1454;SDS011;721;48.168;12.818;2022-07-06T03:53:51;4.40;;;4.10;;
1454;SDS011;721;48.168;12.818;2022-07-06T03:56:19;4.07;;;3.67;;
1454;SDS011;721;48.168;12.818;2022-07-06T03:58:55;4.20;;;3.83;;
1454;SDS011;721;48.168;12.818;2022-07-06T04:01:22;4.43;;;3.70;;
1454;SDS011;721;48.168;12.818;2022-07-06T04:03:49;3.63;;;3.33;;
1454;SDS011;721;48.168;12.818;2022-07-06T04:06:17;4.47;;;4.17;;
1454;SDS011;721;48.168;12.818;2022-07-06T04:08:44;4.13;;;3.70;;
1454;SDS011;721;48.168;12.818;2022-07-06T04:11:11;4.10;;;3.90;;
1454;SDS011;721;48.168;12.818;2022-07-06T04:13:39;4.13;;;3.83;;
1454;SDS011;721;48.168;12.818;2022-07-06T04:16:06;3.33;;;2.97;;
1454;SDS011;721;48.168;12.818;2022-07-06T04:18:33;3.67;;;3.10;;
1454;SDS011;721;48.168;12.818;2022-07-06T04:21:00;3.47;;;3.27;;
1454;SDS011;721;48.168;12.818;2022-07-06T04:23:28;6.10;;;3.50;;
1454;SDS011;721;48.168;12.818;2022-07-06T04:25:54;4.03;;;3.67;;
1454;SDS011;721;48.168;12.818;2022-07-06T04:28:21;6.30;;;3.07;;
1454;SDS011;721;48.168;12.818;2022-07-06T04:30:49;3.83;;;3.40;;
1454;SDS011;721;48.168;12.818;2022-07-06T04:33:16;2.70;;;2.50;;
1454;SDS011;721;48.168;12.818;2022-07-06T04:35:43;3.10;;;2.80;;
1454;SDS011;721;48.168;12.818;2022-07-06T04:38:10;2.67;;;2.57;;
1454;SDS011;721;48.168;12.818;2022-07-06T04:40:36;3.50;;;3.20;;
1454;SDS011;721;48.168;12.818;2022-07-06T04:43:04;3.70;;;3.40;;
1454;SDS011;721;48.168;12.818;2022-07-06T04:45:31;3.43;;;3.23;;
1454;SDS011;721;48.168;12.818;2022-07-06T04:47:59;5.40;;;3.27;;
1454;SDS011;721;48.168;12.818;2022-07-06T04:50:26;3.67;;;3.47;;
1454;SDS011;721;48.168;12.818;2022-07-06T04:52:53;2.83;;;2.63;;
1454;SDS011;721;48.168;12.818;2022-07-06T04:55:20;2.30;;;2.20;;
1454;SDS011;721;48.168;12.818;2022-07-06T04:57:47;3.43;;;3.13;;
1454;SDS011;721;48.168;12.818;2022-07-06T05:00:14;3.10;;;2.90;;
1454;SDS011;721;48.168;12.818;2022-07-06T05:02:41;5.70;;;3.20;;
1454;SDS011;721;48.168;12.818;2022-07-06T05:05:10;2.83;;;2.60;;
1454;SDS011;721;48.168;12.818;2022-07-06T05:07:36;2.80;;;2.60;;
1454;SDS011;721;48.168;12.818;2022-07-06T05:10:06;2.30;;;2.20;;
1454;SDS011;721;48.168;12.818;2022-07-06T05:12:33;3.23;;;2.93;;
1454;SDS011;721;48.168;12.818;2022-07-06T05:15:00;3.23;;;2.93;;
1454;SDS011;721;48.168;12.818;2022-07-06T05:17:27;3.07;;;2.40;;
1454;SDS011;721;48.168;12.818;2022-07-06T05:19:54;5.27;;;2.80;;
1454;SDS011;721;48.168;12.818;2022-07-06T05:22:22;2.47;;;2.27;;
1454;SDS011;721;48.168;12.818;2022-07-06T05:24:50;2.83;;;2.63;;
1454;SDS011;721;48.168;12.818;2022-07-06T05:27:17;2.40;;;2.20;;
1454;SDS011;721;48.168;12.818;2022-07-06T05:29:44;3.30;;;2.40;;
1454;SDS011;721;48.168;12.818;2022-07-06T05:32:11;2.63;;;2.43;;
1454;SDS011;721;48.168;12.818;2022-07-06T05:34:38;2.53;;;2.33;;
1454;SDS011;721;48.168;12.818;2022-07-06T05:37:05;1.77;;;1.67;;
1454;SDS011;721;48.168;12.818;2022-07-06T05:39:33;4.40;;;2.90;;
1454;SDS011;721;48.168;12.818;2022-07-06T05:42:00;2.60;;;2.50;;
1454;SDS011;721;48.168;12.818;2022-07-06T05:44:26;2.50;;;2.23;;
1454;SDS011;721;48.168;12.818;2022-07-06T05:46:53;2.87;;;2.33;;
1454;SDS011;721;48.168;12.818;2022-07-06T05:49:41;2.50;;;2.40;;
1454;SDS011;721;48.168;12.818;2022-07-06T05:52:25;2.80;;;2.43;;
1454;SDS011;721;48.168;12.818;2022-07-06T05:54:53;3.20;;;1.90;;
1454;SDS011;721;48.168;12.818;2022-07-06T05:57:20;2.40;;;2.10;;
1454;SDS011;721;48.168;12.818;2022-07-06T05:59:47;2.57;;;1.90;;
1454;SDS011;721;48.168;12.818;2022-07-06T06:02:14;2.57;;;1.83;;
1454;SDS011;721;48.168;12.818;2022-07-06T06:04:41;4.10;;;1.80;;
1454;SDS011;721;48.168;12.818;2022-07-06T06:07:08;2.37;;;1.67;;
1454;SDS011;721;48.168;12.818;2022-07-06T06:09:35;2.20;;;2.10;;
1454;SDS011;721;48.168;12.818;2022-07-06T06:12:03;1.83;;;1.73;;
1454;SDS011;721;48.168;12.818;2022-07-06T06:14:30;3.20;;;2.17;;
1454;SDS011;721;48.168;12.818;2022-07-06T06:16:57;2.63;;;1.87;;
1454;SDS011;721;48.168;12.818;2022-07-06T06:19:24;3.63;;;2.17;;
1454;SDS011;721;48.168;12.818;2022-07-06T06:21:51;3.40;;;2.23;;
1454;SDS011;721;48.168;12.818;2022-07-06T06:24:18;1.70;;;1.60;;
1454;SDS011;721;48.168;12.818;2022-07-06T06:26:45;1.70;;;1.47;;
1454;SDS011;721;48.168;12.818;2022-07-06T06:29:13;1.70;;;1.60;;
1454;SDS011;721;48.168;12.818;2022-07-06T06:31:40;1.60;;;1.50;;
1454;SDS011;721;48.168;12.818;2022-07-06T06:34:08;3.40;;;2.20;;
1454;SDS011;721;48.168;12.818;2022-07-06T06:36:35;2.80;;;1.73;;
1454;SDS011;721;48.168;12.818;2022-07-06T06:39:02;1.80;;;1.70;;
1454;SDS011;721;48.168;12.818;2022-07-06T06:41:29;1.97;;;1.87;;
1454;SDS011;721;48.168;12.818;2022-07-06T06:43:56;2.17;;;2.07;;
1454;SDS011;721;48.168;12.818;2022-07-06T06:46:24;3.20;;;1.80;;
1454;SDS011;721;48.168;12.818;2022-07-06T06:48:51;2.07;;;1.90;;
1454;SDS011;721;48.168;12.818;2022-07-06T06:51:18;1.83;;;1.73;;
1454;SDS011;721;48.168;12.818;2022-07-06T06:53:45;2.07;;;1.87;;
1454;SDS011;721;48.168;12.818;2022-07-06T06:56:12;2.77;;;1.60;;
1454;SDS011;721;48.168;12.818;2022-07-06T06:58:39;3.20;;;2.20;;
1454;SDS011;721;48.168;12.818;2022-07-06T07:01:06;2.10;;;2.00;;
1454;SDS011;721;48.168;12.818;2022-07-06T07:03:34;1.70;;;1.60;;
1454;SDS011;721;48.168;12.818;2022-07-06T07:06:01;4.90;;;2.07;;
1454;SDS011;721;48.168;12.818;2022-07-06T07:08:28;3.03;;;2.20;;
1454;SDS011;721;48.168;12.818;2022-07-06T07:10:55;2.57;;;2.33;;
1454;SDS011;721;48.168;12.818;2022-07-06T07:13:22;1.77;;;1.70;;
1454;SDS011;721;48.168;12.818;2022-07-06T07:15:49;2.17;;;1.90;;
1454;SDS011;721;48.168;12.818;2022-07-06T07:18:16;2.80;;;2.27;;
1454;SDS011;721;48.168;12.818;2022-07-06T07:20:44;3.63;;;1.70;;
1454;SDS011;721;48.168;12.818;2022-07-06T07:23:12;1.83;;;1.73;;
1454;SDS011;721;48.168;12.818;2022-07-06T07:25:38;1.70;;;1.60;;
1454;SDS011;721;48.168;12.818;2022-07-06T07:28:05;2.30;;;2.20;;
1454;SDS011;721;48.168;12.818;2022-07-06T07:30:32;2.60;;;2.40;;
1454;SDS011;721;48.168;12.818;2022-07-06T07:32:59;3.10;;;2.23;;
1454;SDS011;721;48.168;12.818;2022-07-06T07:35:26;2.10;;;1.90;;
1454;SDS011;721;48.168;12.818;2022-07-06T07:37:54;2.43;;;2.10;;
1454;SDS011;721;48.168;12.818;2022-07-06T07:40:21;2.27;;;2.17;;
1454;SDS011;721;48.168;12.818;2022-07-06T07:42:48;2.43;;;2.13;;
1454;SDS011;721;48.168;12.818;2022-07-06T07:45:15;3.73;;;2.23;;
1454;SDS011;721;48.168;12.818;2022-07-06T07:47:42;2.90;;;1.87;;
1454;SDS011;721;48.168;12.818;2022-07-06T07:50:09;2.33;;;2.13;;
1454;SDS011;721;48.168;12.818;2022-07-06T07:52:37;2.60;;;2.27;;
1454;SDS011;721;48.168;12.818;2022-07-06T07:55:06;4.43;;;1.80;;
1454;SDS011;721;48.168;12.818;2022-07-06T07:57:33;2.00;;;1.90;;
1454;SDS011;721;48.168;12.818;2022-07-06T08:00:00;4.00;;;1.97;;
1454;SDS011;721;48.168;12.818;2022-07-06T08:02:27;3.60;;;2.50;;
1454;SDS011;721;48.168;12.818;2022-07-06T08:04:54;1.70;;;1.53;;
1454;SDS011;721;48.168;12.818;2022-07-06T08:07:21;2.93;;;2.73;;
1454;SDS011;721;48.168;12.818;2022-07-06T08:09:48;2.60;;;2.40;;
1454;SDS011;721;48.168;12.818;2022-07-06T08:12:16;2.80;;;2.60;;
1454;SDS011;721;48.168;12.818;2022-07-06T08:14:43;2.80;;;1.70;;
1454;SDS011;721;48.168;12.818;2022-07-06T08:17:10;2.10;;;1.90;;
1454;SDS011;721;48.168;12.818;2022-07-06T08:19:37;2.73;;;2.47;;
1454;SDS011;721;48.168;12.818;2022-07-06T08:22:04;2.20;;;1.97;;
1454;SDS011;721;48.168;12.818;2022-07-06T08:24:32;4.27;;;2.43;;
1454;SDS011;721;48.168;12.818;2022-07-06T08:26:59;3.30;;;2.47;;
1454;SDS011;721;48.168;12.818;2022-07-06T08:29:27;2.00;;;1.90;;
1454;SDS011;721;48.168;12.818;2022-07-06T08:31:54;2.00;;;1.73;;
1454;SDS011;721;48.168;12.818;2022-07-06T08:34:21;2.93;;;2.43;;
1454;SDS011;721;48.168;12.818;2022-07-06T08:36:48;4.50;;;2.27;;
1454;SDS011;721;48.168;12.818;2022-07-06T08:39:15;2.63;;;1.70;;
1454;SDS011;721;48.168;12.818;2022-07-06T08:41:42;2.07;;;1.97;;
1454;SDS011;721;48.168;12.818;2022-07-06T08:44:12;2.23;;;2.00;;
1454;SDS011;721;48.168;12.818;2022-07-06T08:46:41;2.40;;;2.20;;
1454;SDS011;721;48.168;12.818;2022-07-06T08:49:12;3.30;;;2.23;;
1454;SDS011;721;48.168;12.818;2022-07-06T08:51:40;3.37;;;1.97;;
1454;SDS011;721;48.168;12.818;2022-07-06T08:54:07;2.30;;;2.10;;
1454;SDS011;721;48.168;12.818;2022-07-06T08:56:36;2.60;;;2.40;;
1454;SDS011;721;48.168;12.818;2022-07-06T08:59:03;2.47;;;2.23;;
1454;SDS011;721;48.168;12.818;2022-07-06T09:01:33;2.43;;;2.23;;
1454;SDS011;721;48.168;12.818;2022-07-06T09:04:02;3.20;;;2.10;;
1454;SDS011;721;48.168;12.818;2022-07-06T09:06:32;3.10;;;2.20;;
1454;SDS011;721;48.168;12.818;2022-07-06T09:09:00;2.20;;;2.10;;
1454;SDS011;721;48.168;12.818;2022-07-06T09:11:31;5.60;;;2.30;;
1454;SDS011;721;48.168;12.818;2022-07-06T09:13:58;2.70;;;2.20;;
1454;SDS011;721;48.168;12.818;2022-07-06T09:16:26;4.70;;;2.83;;
1454;SDS011;721;48.168;12.818;2022-07-06T09:18:54;2.30;;;2.20;;
1454;SDS011;721;48.168;12.818;2022-07-06T09:21:24;2.03;;;1.70;;
1454;SDS011;721;48.168;12.818;2022-07-06T09:23:54;4.83;;;2.33;;
1454;SDS011;721;48.168;12.818;2022-07-06T09:26:21;2.40;;;1.73;;
1454;SDS011;721;48.168;12.818;2022-07-06T09:28:48;2.20;;;2.10;;
1454;SDS011;721;48.168;12.818;2022-07-06T09:31:15;2.23;;;2.03;;
1454;SDS011;721;48.168;12.818;2022-07-06T09:33:53;2.13;;;1.93;;
1454;SDS011;721;48.168;12.818;2022-07-06T09:39:21;1.90;;;1.80;;
1454;SDS011;721;48.168;12.818;2022-07-06T09:41:49;1.83;;;1.70;;
1454;SDS011;721;48.168;12.818;2022-07-06T09:44:19;2.13;;;2.03;;
1454;SDS011;721;48.168;12.818;2022-07-06T09:46:48;2.57;;;2.37;;
1454;SDS011;721;48.168;12.818;2022-07-06T09:49:16;3.67;;;2.67;;
1454;SDS011;721;48.168;12.818;2022-07-06T09:51:45;2.63;;;2.43;;
1454;SDS011;721;48.168;12.818;2022-07-06T09:54:12;2.60;;;2.40;;
1454;SDS011;721;48.168;12.818;2022-07-06T09:56:40;2.77;;;2.57;;
1454;SDS011;721;48.168;12.818;2022-07-06T09:59:09;3.37;;;2.10;;
1454;SDS011;721;48.168;12.818;2022-07-06T10:01:37;2.40;;;2.10;;
1454;SDS011;721;48.168;12.818;2022-07-06T10:04:05;2.10;;;2.00;;
1454;SDS011;721;48.168;12.818;2022-07-06T10:06:32;3.50;;;3.20;;
1454;SDS011;721;48.168;12.818;2022-07-06T10:09:02;3.80;;;2.20;;
1454;SDS011;721;48.168;12.818;2022-07-06T10:11:32;3.00;;;2.80;;
1454;SDS011;721;48.168;12.818;2022-07-06T10:14:03;1.90;;;1.80;;
1454;SDS011;721;48.168;12.818;2022-07-06T10:16:32;2.10;;;1.87;;
1454;SDS011;721;48.168;12.818;2022-07-06T10:19:01;2.33;;;2.13;;
1454;SDS011;721;48.168;12.818;2022-07-06T10:21:30;2.37;;;2.17;;
1454;SDS011;721;48.168;12.818;2022-07-06T10:23:58;2.60;;;2.40;;
1454;SDS011;721;48.168;12.818;2022-07-06T10:26:27;2.57;;;2.37;;
1454;SDS011;721;48.168;12.818;2022-07-06T10:28:54;2.03;;;1.93;;
1454;SDS011;721;48.168;12.818;2022-07-06T10:31:21;2.40;;;2.20;;
1454;SDS011;721;48.168;12.818;2022-07-06T10:33:49;2.23;;;2.03;;
1454;SDS011;721;48.168;12.818;2022-07-06T10:36:17;4.50;;;2.43;;
1454;SDS011;721;48.168;12.818;2022-07-06T10:38:46;2.13;;;2.03;;
1454;SDS011;721;48.168;12.818;2022-07-06T10:41:17;3.93;;;2.33;;
1454;SDS011;721;48.168;12.818;2022-07-06T10:43:44;3.17;;;2.43;;
1454;SDS011;721;48.168;12.818;2022-07-06T10:46:13;2.77;;;2.30;;
1454;SDS011;721;48.168;12.818;2022-07-06T10:48:42;2.87;;;2.57;;
1454;SDS011;721;48.168;12.818;2022-07-06T10:51:10;2.47;;;2.27;;
1454;SDS011;721;48.168;12.818;2022-07-06T10:53:38;2.53;;;1.87;;
1454;SDS011;721;48.168;12.818;2022-07-06T10:56:07;2.37;;;2.20;;
1454;SDS011;721;48.168;12.818;2022-07-06T10:58:40;1.83;;;1.60;;
1454;SDS011;721;48.168;12.818;2022-07-06T11:01:13;2.20;;;1.70;;
1454;SDS011;721;48.168;12.818;2022-07-06T11:03:41;4.53;;;2.03;;
1454;SDS011;721;48.168;12.818;2022-07-06T11:06:10;2.93;;;2.30;;
1454;SDS011;721;48.168;12.818;2022-07-06T11:08:42;3.00;;;2.77;;
1454;SDS011;721;48.168;12.818;2022-07-06T11:11:10;2.20;;;1.87;;
1454;SDS011;721;48.168;12.818;2022-07-06T11:13:44;8.43;;;2.77;;
1454;SDS011;721;48.168;12.818;2022-07-06T11:16:14;2.40;;;2.30;;
1454;SDS011;721;48.168;12.818;2022-07-06T11:18:42;2.50;;;2.30;;
1454;SDS011;721;48.168;12.818;2022-07-06T11:21:21;2.30;;;2.10;;
1454;SDS011;721;48.168;12.818;2022-07-06T11:23:49;2.33;;;2.23;;
1454;SDS011;721;48.168;12.818;2022-07-06T11:26:17;2.20;;;2.10;;
1454;SDS011;721;48.168;12.818;2022-07-06T11:28:46;2.07;;;1.97;;
1454;SDS011;721;48.168;12.818;2022-07-06T11:31:16;2.93;;;2.70;;
1454;SDS011;721;48.168;12.818;2022-07-06T11:33:44;2.40;;;1.87;;
1454;SDS011;721;48.168;12.818;2022-07-06T11:36:13;2.17;;;2.07;;
1454;SDS011;721;48.168;12.818;2022-07-06T11:38:41;2.37;;;2.27;;
1454;SDS011;721;48.168;12.818;2022-07-06T11:41:09;1.70;;;1.60;;
1454;SDS011;721;48.168;12.818;2022-07-06T11:43:37;2.20;;;2.00;;
1454;SDS011;721;48.168;12.818;2022-07-06T11:46:18;3.63;;;2.03;;
1454;SDS011;721;48.168;12.818;2022-07-06T11:48:52;2.30;;;2.00;;
1454;SDS011;721;48.168;12.818;2022-07-06T11:51:20;2.00;;;1.90;;
1454;SDS011;721;48.168;12.818;2022-07-06T11:53:48;4.07;;;2.03;;
1454;SDS011;721;48.168;12.818;2022-07-06T11:56:16;2.17;;;1.83;;
1454;SDS011;721;48.168;12.818;2022-07-06T11:58:46;2.83;;;1.73;;
1454;SDS011;721;48.168;12.818;2022-07-06T12:01:15;1.90;;;1.80;;
1454;SDS011;721;48.168;12.818;2022-07-06T12:03:43;3.77;;;2.00;;
1454;SDS011;721;48.168;12.818;2022-07-06T12:06:15;2.20;;;2.10;;
1454;SDS011;721;48.168;12.818;2022-07-06T12:08:44;2.17;;;2.00;;
1454;SDS011;721;48.168;12.818;2022-07-06T12:11:23;5.47;;;1.90;;
1454;SDS011;721;48.168;12.818;2022-07-06T12:13:51;2.03;;;1.93;;
1454;SDS011;721;48.168;12.818;2022-07-06T12:16:19;3.83;;;2.20;;
1454;SDS011;721;48.168;12.818;2022-07-06T12:18:50;2.60;;;2.40;;
1454;SDS011;721;48.168;12.818;2022-07-06T12:21:17;2.40;;;2.30;;
1454;SDS011;721;48.168;12.818;2022-07-06T12:23:47;2.33;;;2.20;;
1454;SDS011;721;48.168;12.818;2022-07-06T12:26:16;2.20;;;2.10;;
1454;SDS011;721;48.168;12.818;2022-07-06T12:28:43;2.50;;;2.30;;
1454;SDS011;721;48.168;12.818;2022-07-06T12:31:11;1.90;;;1.80;;
1454;SDS011;721;48.168;12.818;2022-07-06T12:33:58;1.90;;;1.80;;
1454;SDS011;721;48.168;12.818;2022-07-06T12:36:25;2.10;;;1.90;;
1454;SDS011;721;48.168;12.818;2022-07-06T12:38:51;2.40;;;1.80;;
1454;SDS011;721;48.168;12.818;2022-07-06T12:41:25;2.10;;;2.00;;
1454;SDS011;721;48.168;12.818;2022-07-06T12:43:59;2.90;;;2.47;;
1454;SDS011;721;48.168;12.818;2022-07-06T12:46:28;2.63;;;2.30;;
1454;SDS011;721;48.168;12.818;2022-07-06T12:48:56;2.90;;;2.10;;
1454;SDS011;721;48.168;12.818;2022-07-06T12:51:25;2.63;;;2.43;;
1454;SDS011;721;48.168;12.818;2022-07-06T12:53:52;2.40;;;2.20;;
1454;SDS011;721;48.168;12.818;2022-07-06T12:56:37;2.00;;;1.90;;
1454;SDS011;721;48.168;12.818;2022-07-06T12:59:21;2.40;;;2.30;;
1454;SDS011;721;48.168;12.818;2022-07-06T13:01:49;4.23;;;2.73;;
1454;SDS011;721;48.168;12.818;2022-07-06T13:06:45;2.57;;;1.80;;
1454;SDS011;721;48.168;12.818;2022-07-06T13:09:12;3.73;;;2.73;;
1454;SDS011;721;48.168;12.818;2022-07-06T13:11:39;3.70;;;2.03;;
1454;SDS011;721;48.168;12.818;2022-07-06T13:14:06;3.03;;;1.87;;
1454;SDS011;721;48.168;12.818;2022-07-06T13:16:34;2.20;;;2.10;;
1454;SDS011;721;48.168;12.818;2022-07-06T13:19:01;2.10;;;2.00;;
1454;SDS011;721;48.168;12.818;2022-07-06T13:21:28;1.60;;;1.50;;
1454;SDS011;721;48.168;12.818;2022-07-06T13:23:56;2.43;;;2.20;;
1454;SDS011;721;48.168;12.818;2022-07-06T13:26:23;2.43;;;2.20;;
1454;SDS011;721;48.168;12.818;2022-07-06T13:28:49;2.40;;;2.20;;
1454;SDS011;721;48.168;12.818;2022-07-06T13:31:16;3.80;;;1.80;;
1454;SDS011;721;48.168;12.818;2022-07-06T13:33:43;2.50;;;2.20;;
1454;SDS011;721;48.168;12.818;2022-07-06T13:36:10;2.40;;;2.30;;
1454;SDS011;721;48.168;12.818;2022-07-06T13:38:37;1.87;;;1.77;;
1454;SDS011;721;48.168;12.818;2022-07-06T13:41:05;2.00;;;1.90;;
1454;SDS011;721;48.168;12.818;2022-07-06T13:43:32;1.73;;;1.63;;
1454;SDS011;721;48.168;12.818;2022-07-06T13:46:02;2.10;;;1.60;;
1454;SDS011;721;48.168;12.818;2022-07-06T13:48:29;2.17;;;1.97;;
1454;SDS011;721;48.168;12.818;2022-07-06T13:50:57;3.87;;;1.93;;
1454;SDS011;721;48.168;12.818;2022-07-06T13:53:24;3.00;;;2.40;;
1454;SDS011;721;48.168;12.818;2022-07-06T13:55:51;2.13;;;2.03;;
1454;SDS011;721;48.168;12.818;2022-07-06T13:58:19;2.77;;;2.30;;
1454;SDS011;721;48.168;12.818;2022-07-06T14:00:50;2.07;;;1.87;;
1454;SDS011;721;48.168;12.818;2022-07-06T14:03:24;3.20;;;2.50;;
1454;SDS011;721;48.168;12.818;2022-07-06T14:05:54;3.97;;;2.33;;
1454;SDS011;721;48.168;12.818;2022-07-06T14:08:21;2.53;;;2.20;;
1454;SDS011;721;48.168;12.818;2022-07-06T14:10:48;2.07;;;1.87;;
1454;SDS011;721;48.168;12.818;2022-07-06T14:13:15;2.43;;;2.23;;
1454;SDS011;721;48.168;12.818;2022-07-06T14:15:43;2.60;;;2.40;;
1454;SDS011;721;48.168;12.818;2022-07-06T14:18:10;4.47;;;2.40;;
1454;SDS011;721;48.168;12.818;2022-07-06T14:20:37;2.23;;;2.00;;
1454;SDS011;721;48.168;12.818;2022-07-06T14:23:04;1.67;;;1.57;;
1454;SDS011;721;48.168;12.818;2022-07-06T14:25:31;2.33;;;1.93;;
1454;SDS011;721;48.168;12.818;2022-07-06T14:27:58;2.93;;;2.50;;
1454;SDS011;721;48.168;12.818;2022-07-06T14:30:27;1.87;;;1.67;;
1454;SDS011;721;48.168;12.818;2022-07-06T14:32:56;1.50;;;1.40;;
1454;SDS011;721;48.168;12.818;2022-07-06T14:35:23;2.33;;;2.23;;
1454;SDS011;721;48.168;12.818;2022-07-06T14:37:50;2.00;;;1.90;;
1454;SDS011;721;48.168;12.818;2022-07-06T14:40:18;1.63;;;1.53;;
1454;SDS011;721;48.168;12.818;2022-07-06T14:42:44;2.70;;;1.70;;
1454;SDS011;721;48.168;12.818;2022-07-06T14:45:11;2.70;;;1.97;;
1454;SDS011;721;48.168;12.818;2022-07-06T14:47:38;2.00;;;1.90;;
1454;SDS011;721;48.168;12.818;2022-07-06T14:50:06;2.83;;;1.87;;
1454;SDS011;721;48.168;12.818;2022-07-06T14:52:34;1.70;;;1.60;;
1454;SDS011;721;48.168;12.818;2022-07-06T14:55:00;2.27;;;1.60;;
1454;SDS011;721;48.168;12.818;2022-07-06T14:57:28;2.30;;;2.10;;
1454;SDS011;721;48.168;12.818;2022-07-06T14:59:54;2.30;;;2.10;;
1454;SDS011;721;48.168;12.818;2022-07-06T15:02:21;2.17;;;2.03;;
1454;SDS011;721;48.168;12.818;2022-07-06T15:04:48;2.37;;;2.17;;
1454;SDS011;721;48.168;12.818;2022-07-06T15:07:20;2.53;;;1.90;;
1454;SDS011;721;48.168;12.818;2022-07-06T15:09:47;2.10;;;1.90;;
1454;SDS011;721;48.168;12.818;2022-07-06T15:12:14;1.80;;;1.70;;
1454;SDS011;721;48.168;12.818;2022-07-06T15:14:41;2.17;;;2.03;;
1454;SDS011;721;48.168;12.818;2022-07-06T15:17:08;1.67;;;1.57;;
1454;SDS011;721;48.168;12.818;2022-07-06T15:19:35;2.17;;;1.80;;
1454;SDS011;721;48.168;12.818;2022-07-06T15:22:02;2.13;;;2.03;;
1454;SDS011;721;48.168;12.818;2022-07-06T15:24:30;3.37;;;1.80;;